Main page
Satellite images 10-day forecastsClimateMarine weather Cyclones Lightning AirportsFAQ Newsletter About
Weather : Europe Africa North America South America Asia Australia-Oceania Others
Languages Contact

Dortmund, Germany

Dortmund Airport

latitude: 51-31N, longitude: 007-37E, elevation: 127 m


METAR: EDLW 272150Z 25005KT CAVOK 01/M02 Q1020 RMK ATIS J
TAF: EDLW 271700Z 2718/2818 29005KT 9999 FEW040 BECMG 2721/2723 23004KT BECMG 2803/2805 19010KT

Time: 23:37 (22:37 UTC)

Current weather observation

The report was made 47 minutes ago, at 21:50 UTC
Wind 5 kt from the West/Southwest
Temperature 1°C
Humidity 80%
Pressure 1020 hPa
Visibility 10 km or more
no clouds below 1500 m and no cumulonimbus

Change units

Forecast

The report was made 5 hours and 37 minutes ago, at 17:00 UTC
Forecast valid from 27 at 18 UTC to 28 at 18 UTC
Wind 5 kt from the West/Northwest
Visibility 10 km or more
Few clouds at a height of 4000 ft
Becoming
from 27 at 21 UTC to 27 at 23 UTC
Wind 4 kt from the Southwest
Becoming
from 28 at 03 UTC to 28 at 05 UTC
Wind 10 kt from the South
The information on this site is subject to a disclaimer
Weather : Europe Africa North America South America Asia Australia-Oceania Others
Satellite images 10-day forecastsClimateMarine weather Cyclones Lightning AirportsFAQ Languages Contact Newsletter About